CES7301 ZSCN-ZGOW
Flight info
| Callsign | CES7301 |
|---|---|
| Flight time | N/A |
| Altitude | 29100 |
| Route | OSO91D OSONO W19 PLT/K0870S1190 DCT TEBON V36 SAPUT SAPUT8WA |
| Aircraft | A339/H-SADE1E2E3GHIJ3J5M1P2RWXY/LB2D1 |
Departure
| Time | 2026-04-17 13:07 |
|---|---|
| Airport | Nanchang Changbei International Airport (ZSCN) |
Arrival
| Time | N/A |
|---|---|
| Airport | Jieyang Chaoshan International Airport (ZGOW) |
| Time | Latitude | Longitude | Altitude | Speed | Heading |
|---|---|---|---|---|---|
| 2026-04-17 12:22 | 28.86691 | 115.90926 | 161 ft | 0 kts | 87° |
| 2026-04-17 12:23 | 28.86690 | 115.90926 | 161 ft | 0 kts | 87° |
| 2026-04-17 12:43 | 28.86691 | 115.90926 | 161 ft | 0 kts | 87° |
| 2026-04-17 12:43 | 28.86690 | 115.90911 | 161 ft | 2 kts | 89° |
| 2026-04-17 12:43 | 28.86693 | 115.90894 | 161 ft | 2 kts | 117° |
| 2026-04-17 12:44 | 28.86701 | 115.90880 | 161 ft | 2 kts | 139° |
| 2026-04-17 12:44 | 28.86714 | 115.90871 | 161 ft | 2 kts | 161° |
| 2026-04-17 12:44 | 28.86729 | 115.90868 | 161 ft | 2 kts | 183° |
| 2026-04-17 12:44 | 28.86742 | 115.90870 | 161 ft | 0 kts | 202° |
| 2026-04-17 12:45 | 28.86747 | 115.90872 | 161 ft | 0 kts | 204° |
| 2026-04-17 12:52 | 28.86737 | 115.90868 | 161 ft | 2 kts | 204° |
| 2026-04-17 12:53 | 28.86714 | 115.90852 | 161 ft | 4 kts | 220° |
| 2026-04-17 12:53 | 28.86696 | 115.90808 | 161 ft | 6 kts | 267° |
| 2026-04-17 12:53 | 28.86712 | 115.90752 | 161 ft | 8 kts | 292° |
| 2026-04-17 12:53 | 28.86736 | 115.90685 | 161 ft | 9 kts | 292° |
| 2026-04-17 12:54 | 28.86734 | 115.90609 | 161 ft | 10 kts | 230° |
| 2026-04-17 12:54 | 28.86666 | 115.90563 | 161 ft | 11 kts | 204° |
| 2026-04-17 12:54 | 28.86585 | 115.90521 | 161 ft | 13 kts | 204° |
| 2026-04-17 12:54 | 28.86497 | 115.90478 | 161 ft | 13 kts | 200° |
| 2026-04-17 12:55 | 28.86404 | 115.90435 | 161 ft | 14 kts | 203° |
| 2026-04-17 12:55 | 28.86304 | 115.90386 | 161 ft | 15 kts | 203° |
| 2026-04-17 12:55 | 28.86203 | 115.90337 | 161 ft | 16 kts | 202° |
| 2026-04-17 12:55 | 28.86097 | 115.90287 | 161 ft | 16 kts | 203° |
| 2026-04-17 12:56 | 28.85989 | 115.90234 | 161 ft | 16 kts | 204° |
| 2026-04-17 12:56 | 28.85881 | 115.90180 | 161 ft | 17 kts | 202° |
| 2026-04-17 12:56 | 28.85784 | 115.90134 | 161 ft | 15 kts | 202° |
| 2026-04-17 12:56 | 28.85696 | 115.90093 | 161 ft | 11 kts | 203° |
| 2026-04-17 12:57 | 28.85618 | 115.90054 | 161 ft | 12 kts | 203° |
| 2026-04-17 12:57 | 28.85533 | 115.90012 | 161 ft | 13 kts | 204° |
| 2026-04-17 12:57 | 28.85443 | 115.89967 | 161 ft | 14 kts | 204° |
| 2026-04-17 12:57 | 28.85347 | 115.89919 | 161 ft | 15 kts | 203° |
| 2026-04-17 12:58 | 28.85256 | 115.89876 | 162 ft | 12 kts | 203° |
| 2026-04-17 12:58 | 28.85189 | 115.89844 | 161 ft | 9 kts | 203° |
| 2026-04-17 12:58 | 28.85124 | 115.89812 | 162 ft | 10 kts | 203° |
| 2026-04-17 12:58 | 28.85065 | 115.89784 | 162 ft | 8 kts | 206° |
| 2026-04-17 12:59 | 28.85032 | 115.89735 | 162 ft | 9 kts | 268° |
| 2026-04-17 12:59 | 28.85040 | 115.89698 | 162 ft | 0 kts | 292° |
| 2026-04-17 13:00 | 28.85042 | 115.89693 | 162 ft | 1 kts | 292° |
| 2026-04-17 13:01 | 28.85049 | 115.89673 | 162 ft | 3 kts | 292° |
| 2026-04-17 13:01 | 28.85062 | 115.89637 | 162 ft | 5 kts | 292° |
| 2026-04-17 13:01 | 28.85092 | 115.89602 | 162 ft | 7 kts | 342° |
| 2026-04-17 13:01 | 28.85146 | 115.89613 | 162 ft | 7 kts | 21° |
| 2026-04-17 13:02 | 28.85152 | 115.89616 | 162 ft | 0 kts | 22° |
| 2026-04-17 13:05 | 28.85155 | 115.89617 | 162 ft | 1 kts | 22° |
| 2026-04-17 13:06 | 28.85183 | 115.89630 | 162 ft | 17 kts | 23° |
| 2026-04-17 13:06 | 28.85520 | 115.89793 | 162 ft | 84 kts | 22° |
| 2026-04-17 13:06 | 28.86243 | 115.90143 | 162 ft | 140 kts | 23° |
| 2026-04-17 13:06 | 28.87257 | 115.90634 | 428 ft | 163 kts | 22° |
| 2026-04-17 13:07 | 28.88294 | 115.91140 | 1064 ft | 161 kts | 22° |
| 2026-04-17 13:07 | 28.89308 | 115.91632 | 1754 ft | 158 kts | 21° |
| 2026-04-17 13:07 | 28.90340 | 115.92128 | 2234 ft | 167 kts | 22° |
| 2026-04-17 13:07 | 28.91469 | 115.92673 | 2542 ft | 182 kts | 22° |
| 2026-04-17 13:08 | 28.92674 | 115.93256 | 2927 ft | 194 kts | 22° |
| 2026-04-17 13:08 | 28.93979 | 115.93889 | 3243 ft | 211 kts | 23° |
| 2026-04-17 13:08 | 28.95406 | 115.94584 | 3735 ft | 222 kts | 23° |
| 2026-04-17 13:08 | 28.96831 | 115.95279 | 4422 ft | 224 kts | 23° |
| 2026-04-17 13:09 | 28.98270 | 115.95980 | 5102 ft | 227 kts | 23° |
| 2026-04-17 13:09 | 28.99715 | 115.96685 | 5757 ft | 230 kts | 23° |
| 2026-04-17 13:09 | 29.01261 | 115.97242 | 6405 ft | 234 kts | 4° |
| 2026-04-17 13:09 | 29.02882 | 115.96967 | 7052 ft | 239 kts | 338° |
| 2026-04-17 13:10 | 29.04263 | 115.95924 | 7689 ft | 245 kts | 314° |
| 2026-04-17 13:10 | 29.05159 | 115.94257 | 8347 ft | 250 kts | 289° |
| 2026-04-17 13:10 | 29.05344 | 115.92281 | 9032 ft | 255 kts | 262° |
| 2026-04-17 13:10 | 29.04742 | 115.90382 | 9718 ft | 259 kts | 236° |
| 2026-04-17 13:11 | 29.03433 | 115.88956 | 10406 ft | 260 kts | 211° |
| 2026-04-17 13:11 | 29.01809 | 115.88098 | 11124 ft | 260 kts | 201° |
| 2026-04-17 13:11 | 29.00088 | 115.87402 | 11861 ft | 260 kts | 200° |
| 2026-04-17 13:11 | 28.98395 | 115.86724 | 12598 ft | 258 kts | 200° |
| 2026-04-17 13:12 | 28.96714 | 115.86027 | 13248 ft | 257 kts | 201° |
| 2026-04-17 13:12 | 28.93312 | 115.84457 | 13765 ft | 282 kts | 204° |
| 2026-04-17 13:12 | 28.91327 | 115.83495 | 13775 ft | 310 kts | 204° |
| 2026-04-17 13:13 | 28.89231 | 115.82476 | 13770 ft | 337 kts | 204° |
| 2026-04-17 13:13 | 28.86965 | 115.81375 | 13771 ft | 356 kts | 204° |
| 2026-04-17 13:13 | 28.84702 | 115.80279 | 13770 ft | 350 kts | 205° |
| 2026-04-17 13:13 | 28.82500 | 115.79216 | 13746 ft | 332 kts | 205° |
| 2026-04-17 13:14 | 28.80403 | 115.78203 | 13783 ft | 316 kts | 205° |
| 2026-04-17 13:14 | 28.78371 | 115.77222 | 13789 ft | 314 kts | 205° |
| 2026-04-17 13:14 | 28.76340 | 115.76238 | 13785 ft | 314 kts | 205° |
| 2026-04-17 13:14 | 28.74366 | 115.75284 | 13783 ft | 301 kts | 205° |
| 2026-04-17 13:15 | 28.72453 | 115.74361 | 13789 ft | 290 kts | 205° |
| 2026-04-17 13:15 | 28.70587 | 115.73460 | 13796 ft | 291 kts | 205° |
| 2026-04-17 13:15 | 28.68691 | 115.72544 | 13793 ft | 291 kts | 205° |
| 2026-04-17 13:15 | 28.66830 | 115.71645 | 13791 ft | 290 kts | 205° |
| 2026-04-17 13:16 | 28.64936 | 115.70730 | 13790 ft | 290 kts | 205° |
| 2026-04-17 13:16 | 28.63047 | 115.69819 | 13794 ft | 291 kts | 205° |
| 2026-04-17 13:16 | 28.61205 | 115.68934 | 13785 ft | 281 kts | 205° |
| 2026-04-17 13:16 | 28.59426 | 115.68078 | 13776 ft | 269 kts | 205° |
| 2026-04-17 13:17 | 28.57733 | 115.67265 | 13771 ft | 257 kts | 206° |
| 2026-04-17 13:17 | 28.56098 | 115.66477 | 13781 ft | 253 kts | 206° |
| 2026-04-17 13:17 | 28.54470 | 115.65691 | 13785 ft | 254 kts | 206° |
| 2026-04-17 13:17 | 28.52826 | 115.64900 | 13781 ft | 254 kts | 206° |
| 2026-04-17 13:18 | 28.51172 | 115.64105 | 13779 ft | 254 kts | 206° |
| 2026-04-17 13:18 | 28.49545 | 115.63322 | 13781 ft | 255 kts | 206° |
| 2026-04-17 13:18 | 28.47904 | 115.62534 | 13788 ft | 255 kts | 206° |
| 2026-04-17 13:18 | 28.46265 | 115.61750 | 13789 ft | 254 kts | 206° |
| 2026-04-17 13:19 | 28.44624 | 115.60963 | 13781 ft | 255 kts | 206° |
| 2026-04-17 13:19 | 28.42978 | 115.60177 | 13782 ft | 254 kts | 206° |
| 2026-04-17 13:19 | 28.41333 | 115.59390 | 13781 ft | 254 kts | 206° |
| 2026-04-17 13:19 | 28.39695 | 115.58624 | 13782 ft | 254 kts | 202° |
| 2026-04-17 13:20 | 28.37919 | 115.58346 | 13782 ft | 263 kts | 180° |
| 2026-04-17 13:20 | 28.36114 | 115.58805 | 13788 ft | 269 kts | 168° |
| 2026-04-17 13:20 | 28.34318 | 115.59460 | 13786 ft | 269 kts | 167° |
| 2026-04-17 13:20 | 28.32538 | 115.60122 | 13780 ft | 269 kts | 167° |
| 2026-04-17 13:21 | 28.30749 | 115.60786 | 13778 ft | 268 kts | 167° |
| 2026-04-17 13:21 | 28.28963 | 115.61446 | 13779 ft | 268 kts | 167° |
| 2026-04-17 13:21 | 28.27179 | 115.62101 | 13779 ft | 268 kts | 167° |
| 2026-04-17 13:21 | 28.25400 | 115.62750 | 13786 ft | 268 kts | 167° |
| 2026-04-17 13:22 | 28.23617 | 115.63400 | 13784 ft | 269 kts | 167° |
| 2026-04-17 13:22 | 28.21825 | 115.64053 | 13788 ft | 270 kts | 167° |
| 2026-04-17 13:22 | 28.20025 | 115.64709 | 13784 ft | 270 kts | 167° |
| 2026-04-17 13:22 | 28.18242 | 115.65358 | 13786 ft | 269 kts | 168° |
| 2026-04-17 13:23 | 28.16439 | 115.66016 | 13786 ft | 270 kts | 168° |
| 2026-04-17 13:23 | 28.14634 | 115.66671 | 13786 ft | 270 kts | 168° |
| 2026-04-17 13:23 | 28.12833 | 115.67326 | 13787 ft | 270 kts | 168° |
| 2026-04-17 13:23 | 28.11040 | 115.67977 | 13786 ft | 270 kts | 168° |
| 2026-04-17 13:24 | 28.09235 | 115.68632 | 13787 ft | 270 kts | 168° |
| 2026-04-17 13:24 | 28.07461 | 115.69276 | 13789 ft | 270 kts | 168° |
| 2026-04-17 13:24 | 28.05635 | 115.69941 | 13785 ft | 271 kts | 168° |